sensor_id;sensor_type;location;lat;lon;timestamp;pressure;altitude;pressure_sealevel;temperature;humidity
66945;BME280;53853;51.982;5.928;2022-09-25T00:00:57;101468.16;;;12.87;76.77
66945;BME280;53853;51.982;5.928;2022-09-25T00:03:30;101472.84;;;12.85;76.87
66945;BME280;53853;51.982;5.928;2022-09-25T00:06:01;101467.63;;;12.83;77.23
66945;BME280;53853;51.982;5.928;2022-09-25T00:08:32;101467.78;;;12.82;76.98
66945;BME280;53853;51.982;5.928;2022-09-25T00:11:06;101473.13;;;12.82;77.20
66945;BME280;53853;51.982;5.928;2022-09-25T00:13:37;101468.91;;;12.79;77.72
66945;BME280;53853;51.982;5.928;2022-09-25T00:16:10;101473.28;;;12.80;77.67
66945;BME280;53853;51.982;5.928;2022-09-25T00:18:43;101477.38;;;12.75;77.46
66945;BME280;53853;51.982;5.928;2022-09-25T00:21:26;101473.34;;;12.71;77.32
66945;BME280;53853;51.982;5.928;2022-09-25T00:23:57;101485.00;;;12.69;77.35
66945;BME280;53853;51.982;5.928;2022-09-25T00:26:29;101486.56;;;12.62;77.63
66945;BME280;53853;51.982;5.928;2022-09-25T00:28:59;101479.84;;;12.58;77.46
66945;BME280;53853;51.982;5.928;2022-09-25T00:31:30;101487.03;;;12.58;77.37
66945;BME280;53853;51.982;5.928;2022-09-25T00:34:04;101491.28;;;12.50;77.59
66945;BME280;53853;51.982;5.928;2022-09-25T00:36:35;101487.50;;;12.43;78.48
66945;BME280;53853;51.982;5.928;2022-09-25T00:39:05;101483.44;;;12.39;78.15
66945;BME280;53853;51.982;5.928;2022-09-25T00:41:35;101479.94;;;12.39;77.60
66945;BME280;53853;51.982;5.928;2022-09-25T00:47:39;101481.09;;;12.26;77.17
66945;BME280;53853;51.982;5.928;2022-09-25T00:50:25;101479.28;;;12.17;77.10
66945;BME280;53853;51.982;5.928;2022-09-25T00:53:01;101482.41;;;12.12;77.25
66945;BME280;53853;51.982;5.928;2022-09-25T00:55:33;101479.31;;;12.07;77.23
66945;BME280;53853;51.982;5.928;2022-09-25T00:58:04;101489.41;;;12.04;77.45
66945;BME280;53853;51.982;5.928;2022-09-25T01:00:35;101486.63;;;11.95;77.55
66945;BME280;53853;51.982;5.928;2022-09-25T01:03:08;101482.69;;;11.90;77.68
66945;BME280;53853;51.982;5.928;2022-09-25T01:05:40;101487.63;;;11.85;77.66
66945;BME280;53853;51.982;5.928;2022-09-25T01:08:14;101489.72;;;11.81;77.67
66945;BME280;53853;51.982;5.928;2022-09-25T01:10:45;101482.72;;;11.80;77.60
66945;BME280;53853;51.982;5.928;2022-09-25T01:13:15;101476.94;;;11.75;77.84
66945;BME280;53853;51.982;5.928;2022-09-25T01:15:50;101476.22;;;11.73;77.85
66945;BME280;53853;51.982;5.928;2022-09-25T01:18:35;101476.50;;;11.70;77.78
66945;BME280;53853;51.982;5.928;2022-09-25T01:21:16;101486.63;;;11.66;77.93
66945;BME280;53853;51.982;5.928;2022-09-25T01:24:27;101480.75;;;11.63;78.06
66945;BME280;53853;51.982;5.928;2022-09-25T01:27:26;101481.03;;;11.59;78.28
66945;BME280;53853;51.982;5.928;2022-09-25T01:30:06;101490.00;;;11.58;78.20
66945;BME280;53853;51.982;5.928;2022-09-25T01:32:57;101484.66;;;11.58;78.02
66945;BME280;53853;51.982;5.928;2022-09-25T01:35:34;101487.34;;;11.58;78.25
66945;BME280;53853;51.982;5.928;2022-09-25T01:38:13;101488.44;;;11.56;78.09
66945;BME280;53853;51.982;5.928;2022-09-25T01:40:48;101484.25;;;11.53;78.69
66945;BME280;53853;51.982;5.928;2022-09-25T01:43:26;101479.88;;;11.52;78.74
66945;BME280;53853;51.982;5.928;2022-09-25T01:46:03;101484.53;;;11.50;79.10
66945;BME280;53853;51.982;5.928;2022-09-25T01:48:39;101487.22;;;11.50;79.77
66945;BME280;53853;51.982;5.928;2022-09-25T01:51:19;101483.81;;;11.48;79.53
66945;BME280;53853;51.982;5.928;2022-09-25T01:53:53;101484.81;;;11.47;79.69
66945;BME280;53853;51.982;5.928;2022-09-25T01:56:25;101483.13;;;11.46;79.95
66945;BME280;53853;51.982;5.928;2022-09-25T01:59:02;101486.78;;;11.45;79.26
66945;BME280;53853;51.982;5.928;2022-09-25T02:01:39;101481.59;;;11.44;79.22
66945;BME280;53853;51.982;5.928;2022-09-25T02:04:13;101487.75;;;11.44;79.42
66945;BME280;53853;51.982;5.928;2022-09-25T02:06:48;101484.41;;;11.42;79.15
66945;BME280;53853;51.982;5.928;2022-09-25T02:09:25;101477.63;;;11.38;79.05
66945;BME280;53853;51.982;5.928;2022-09-25T02:12:00;101479.88;;;11.33;78.97
66945;BME280;53853;51.982;5.928;2022-09-25T02:14:36;101479.16;;;11.31;78.88
66945;BME280;53853;51.982;5.928;2022-09-25T02:17:16;101486.59;;;11.27;79.34
66945;BME280;53853;51.982;5.928;2022-09-25T02:20:09;101479.03;;;11.22;79.40
66945;BME280;53853;51.982;5.928;2022-09-25T02:22:52;101484.63;;;11.19;79.93
66945;BME280;53853;51.982;5.928;2022-09-25T02:25:29;101478.47;;;11.19;79.75
66945;BME280;53853;51.982;5.928;2022-09-25T02:28:04;101488.44;;;11.17;80.02
66945;BME280;53853;51.982;5.928;2022-09-25T02:30:34;101480.56;;;11.15;79.99
66945;BME280;53853;51.982;5.928;2022-09-25T02:33:07;101478.47;;;11.19;79.51
66945;BME280;53853;51.982;5.928;2022-09-25T02:35:37;101478.72;;;11.16;79.87
66945;BME280;53853;51.982;5.928;2022-09-25T02:38:08;101478.72;;;11.16;80.16
66945;BME280;53853;51.982;5.928;2022-09-25T02:40:45;101483.25;;;11.15;80.31
66945;BME280;53853;51.982;5.928;2022-09-25T02:43:26;101484.91;;;11.16;79.62
66945;BME280;53853;51.982;5.928;2022-09-25T02:46:07;101476.19;;;11.14;79.88
66945;BME280;53853;51.982;5.928;2022-09-25T02:48:49;101482.66;;;11.12;79.86
66945;BME280;53853;51.982;5.928;2022-09-25T02:51:26;101475.78;;;11.09;79.99
66945;BME280;53853;51.982;5.928;2022-09-25T02:54:04;101473.25;;;11.08;80.04
66945;BME280;53853;51.982;5.928;2022-09-25T02:56:40;101475.34;;;11.04;80.09
66945;BME280;53853;51.982;5.928;2022-09-25T02:59:16;101477.28;;;11.02;80.05
66945;BME280;53853;51.982;5.928;2022-09-25T03:01:47;101481.22;;;10.98;80.09
66945;BME280;53853;51.982;5.928;2022-09-25T03:04:21;101470.72;;;10.96;80.01
66945;BME280;53853;51.982;5.928;2022-09-25T03:06:53;101476.31;;;10.93;80.11
66945;BME280;53853;51.982;5.928;2022-09-25T03:09:25;101473.78;;;10.92;80.43
66945;BME280;53853;51.982;5.928;2022-09-25T03:11:55;101472.09;;;10.91;80.45
66945;BME280;53853;51.982;5.928;2022-09-25T03:14:26;101465.09;;;10.90;79.84
66945;BME280;53853;51.982;5.928;2022-09-25T03:16:58;101477.81;;;10.86;79.76
66945;BME280;53853;51.982;5.928;2022-09-25T03:19:32;101476.28;;;10.83;79.57
66945;BME280;53853;51.982;5.928;2022-09-25T03:22:02;101481.75;;;10.82;79.42
66945;BME280;53853;51.982;5.928;2022-09-25T03:24:32;101469.66;;;10.78;80.21
66945;BME280;53853;51.982;5.928;2022-09-25T03:27:04;101467.97;;;10.77;80.30
66945;BME280;53853;51.982;5.928;2022-09-25T03:29:33;101476.53;;;10.71;80.52
66945;BME280;53853;51.982;5.928;2022-09-25T03:32:03;101468.94;;;10.66;80.95
66945;BME280;53853;51.982;5.928;2022-09-25T03:34:36;101467.25;;;10.65;81.15
66945;BME280;53853;51.982;5.928;2022-09-25T03:37:06;101468.81;;;10.67;81.15
66945;BME280;53853;51.982;5.928;2022-09-25T03:39:36;101468.53;;;10.71;81.20
66945;BME280;53853;51.982;5.928;2022-09-25T03:42:05;101468.53;;;10.71;80.90
66945;BME280;53853;51.982;5.928;2022-09-25T03:44:35;101461.63;;;10.68;80.08
66945;BME280;53853;51.982;5.928;2022-09-25T03:47:05;101462.59;;;10.67;80.39
66945;BME280;53853;51.982;5.928;2022-09-25T03:49:38;101462.88;;;10.64;80.27
66945;BME280;53853;51.982;5.928;2022-09-25T03:52:08;101464.84;;;10.62;80.10
66945;BME280;53853;51.982;5.928;2022-09-25T03:54:40;101464.84;;;10.62;80.20
66945;BME280;53853;51.982;5.928;2022-09-25T03:57:10;101457.28;;;10.67;80.28
66945;BME280;53853;51.982;5.928;2022-09-25T03:59:40;101460.22;;;10.74;80.13
66945;BME280;53853;51.982;5.928;2022-09-25T04:02:10;101464.47;;;10.76;80.12
66945;BME280;53853;51.982;5.928;2022-09-25T04:04:43;101473.03;;;10.80;80.04
66945;BME280;53853;51.982;5.928;2022-09-25T04:07:13;101465.63;;;10.83;79.81
66945;BME280;53853;51.982;5.928;2022-09-25T04:09:43;101465.63;;;10.83;79.68
66945;BME280;53853;51.982;5.928;2022-09-25T04:12:13;101460.03;;;10.86;79.62
66945;BME280;53853;51.982;5.928;2022-09-25T04:14:43;101457.34;;;10.86;79.60
66945;BME280;53853;51.982;5.928;2022-09-25T04:17:13;101451.16;;;10.86;79.78
66945;BME280;53853;51.982;5.928;2022-09-25T04:19:46;101452.28;;;10.83;79.89
66945;BME280;53853;51.982;5.928;2022-09-25T04:22:16;101458.03;;;10.79;80.50
66945;BME280;53853;51.982;5.928;2022-09-25T04:24:46;101462.34;;;10.80;80.29
66945;BME280;53853;51.982;5.928;2022-09-25T04:27:21;101463.50;;;10.77;80.39
66945;BME280;53853;51.982;5.928;2022-09-25T04:29:52;101455.09;;;10.82;80.16
66945;BME280;53853;51.982;5.928;2022-09-25T04:32:23;101460.28;;;10.83;80.14
66945;BME280;53853;51.982;5.928;2022-09-25T04:35:08;101461.00;;;10.85;79.97
66945;BME280;53853;51.982;5.928;2022-09-25T04:37:38;101459.28;;;10.84;80.09
66945;BME280;53853;51.982;5.928;2022-09-25T04:40:09;101465.16;;;10.78;80.26
66945;BME280;53853;51.982;5.928;2022-09-25T04:42:39;101462.63;;;10.77;80.32
66945;BME280;53853;51.982;5.928;2022-09-25T04:45:10;101456.88;;;10.72;80.16
66945;BME280;53853;51.982;5.928;2022-09-25T04:47:40;101464.31;;;10.68;79.62
66945;BME280;53853;51.982;5.928;2022-09-25T04:50:13;101458.53;;;10.63;79.64
66945;BME280;53853;51.982;5.928;2022-09-25T04:52:43;101457.81;;;10.61;79.85
66945;BME280;53853;51.982;5.928;2022-09-25T04:55:13;101459.78;;;10.59;80.11
66945;BME280;53853;51.982;5.928;2022-09-25T04:57:43;101449.13;;;10.59;80.40
66945;BME280;53853;51.982;5.928;2022-09-25T05:00:14;101450.09;;;10.58;80.24
66945;BME280;53853;51.982;5.928;2022-09-25T05:02:44;101449.38;;;10.56;79.91
66945;BME280;53853;51.982;5.928;2022-09-25T05:05:17;101453.19;;;10.53;79.71
66945;BME280;53853;51.982;5.928;2022-09-25T05:07:53;101451.09;;;10.57;80.07
66945;BME280;53853;51.982;5.928;2022-09-25T05:10:24;101445.22;;;10.63;80.34
66945;BME280;53853;51.982;5.928;2022-09-25T05:12:56;101448.31;;;10.68;80.63
66945;BME280;53853;51.982;5.928;2022-09-25T05:15:27;101461.09;;;10.74;80.62
66945;BME280;53853;51.982;5.928;2022-09-25T05:18:01;101458.44;;;10.74;80.72
66945;BME280;53853;51.982;5.928;2022-09-25T05:20:34;101452.25;;;10.74;80.78
66945;BME280;53853;51.982;5.928;2022-09-25T05:23:04;101453.09;;;10.74;80.75
66945;BME280;53853;51.982;5.928;2022-09-25T05:25:34;101443.28;;;10.75;80.81
66945;BME280;53853;51.982;5.928;2022-09-25T05:28:04;101455.03;;;10.72;80.77
66945;BME280;53853;51.982;5.928;2022-09-25T05:30:36;101449.56;;;10.74;80.61
66945;BME280;53853;51.982;5.928;2022-09-25T05:33:07;101438.91;;;10.74;80.57
66945;BME280;53853;51.982;5.928;2022-09-25T05:35:39;101447.22;;;10.71;80.79
66945;BME280;53853;51.982;5.928;2022-09-25T05:38:09;101449.13;;;10.68;80.75
66945;BME280;53853;51.982;5.928;2022-09-25T05:40:39;101453.78;;;10.66;80.91
66945;BME280;53853;51.982;5.928;2022-09-25T05:43:09;101449.28;;;10.67;80.86
66945;BME280;53853;51.982;5.928;2022-09-25T05:45:39;101457.00;;;10.70;80.71
66945;BME280;53853;51.982;5.928;2022-09-25T05:48:09;101464.56;;;10.65;80.62
66945;BME280;53853;51.982;5.928;2022-09-25T05:50:41;101455.59;;;10.66;80.58
66945;BME280;53853;51.982;5.928;2022-09-25T05:53:11;101452.94;;;10.66;80.34
66945;BME280;53853;51.982;5.928;2022-09-25T05:55:41;101453.91;;;10.65;80.23
66945;BME280;53853;51.982;5.928;2022-09-25T05:58:17;101461.47;;;10.60;80.04
66945;BME280;53853;51.982;5.928;2022-09-25T06:00:48;101459.22;;;10.55;80.13
66945;BME280;53853;51.982;5.928;2022-09-25T06:03:18;101460.31;;;10.52;80.22
66945;BME280;53853;51.982;5.928;2022-09-25T06:05:51;101461.72;;;10.47;80.46
66945;BME280;53853;51.982;5.928;2022-09-25T06:08:20;101446.69;;;10.46;80.17
66945;BME280;53853;51.982;5.928;2022-09-25T06:10:51;101449.34;;;10.46;80.27
66945;BME280;53853;51.982;5.928;2022-09-25T06:13:25;101451.19;;;10.45;80.27
66945;BME280;53853;51.982;5.928;2022-09-25T06:15:55;101461.09;;;10.43;80.34
66945;BME280;53853;51.982;5.928;2022-09-25T06:18:25;101465.59;;;10.43;80.35
66945;BME280;53853;51.982;5.928;2022-09-25T06:21:02;101459.44;;;10.42;80.44
66945;BME280;53853;51.982;5.928;2022-09-25T06:23:33;101455.06;;;10.41;80.55
66945;BME280;53853;51.982;5.928;2022-09-25T06:26:04;101462.81;;;10.44;80.52
66945;BME280;53853;51.982;5.928;2022-09-25T06:28:36;101467.16;;;10.45;80.46
66945;BME280;53853;51.982;5.928;2022-09-25T06:31:06;101462.53;;;10.47;80.65
66945;BME280;53853;51.982;5.928;2022-09-25T06:33:36;101465.06;;;10.49;81.04
66945;BME280;53853;51.982;5.928;2022-09-25T06:36:08;101465.38;;;10.56;80.88
66945;BME280;53853;51.982;5.928;2022-09-25T06:38:38;101465.81;;;10.61;80.95
66945;BME280;53853;51.982;5.928;2022-09-25T06:41:08;101467.38;;;10.63;80.70
66945;BME280;53853;51.982;5.928;2022-09-25T06:43:38;101466.69;;;10.71;80.60
66945;BME280;53853;51.982;5.928;2022-09-25T06:46:08;101464.59;;;10.75;80.64
66945;BME280;53853;51.982;5.928;2022-09-25T06:48:38;101459.00;;;10.78;80.51
66945;BME280;53853;51.982;5.928;2022-09-25T06:51:11;101467.28;;;10.84;80.75
66945;BME280;53853;51.982;5.928;2022-09-25T06:53:40;101460.72;;;10.88;80.68
66945;BME280;53853;51.982;5.928;2022-09-25T06:56:10;101464.63;;;10.94;80.58
66945;BME280;53853;51.982;5.928;2022-09-25T06:58:40;101464.97;;;11.01;80.73
66945;BME280;53853;51.982;5.928;2022-09-25T07:01:10;101472.13;;;11.10;80.72
66945;BME280;53853;51.982;5.928;2022-09-25T07:03:40;101472.56;;;11.15;80.51
66945;BME280;53853;51.982;5.928;2022-09-25T07:06:15;101478.88;;;11.24;80.38
66945;BME280;53853;51.982;5.928;2022-09-25T07:08:45;101472.59;;;11.35;79.88
66945;BME280;53853;51.982;5.928;2022-09-25T07:11:17;101472.72;;;11.43;79.42
66945;BME280;53853;51.982;5.928;2022-09-25T07:13:48;101473.13;;;11.48;79.16
66945;BME280;53853;51.982;5.928;2022-09-25T07:16:22;101477.91;;;11.54;78.76
66945;BME280;53853;51.982;5.928;2022-09-25T07:18:53;101474.13;;;11.57;78.14
66945;BME280;53853;51.982;5.928;2022-09-25T07:21:27;101477.34;;;11.60;78.15
66945;BME280;53853;51.982;5.928;2022-09-25T07:23:58;101485.09;;;11.64;78.19
66945;BME280;53853;51.982;5.928;2022-09-25T07:26:29;101486.91;;;11.73;78.13
66945;BME280;53853;51.982;5.928;2022-09-25T07:29:02;101484.66;;;11.78;77.89
66945;BME280;53853;51.982;5.928;2022-09-25T07:31:33;101498.72;;;11.80;77.47
66945;BME280;53853;51.982;5.928;2022-09-25T07:34:04;101495.63;;;11.85;77.65
66945;BME280;53853;51.982;5.928;2022-09-25T07:36:38;101492.66;;;11.88;77.78
66945;BME280;53853;51.982;5.928;2022-09-25T07:39:08;101497.31;;;11.95;77.67
66945;BME280;53853;51.982;5.928;2022-09-25T07:41:38;101491.41;;;12.02;77.46
66945;BME280;53853;51.982;5.928;2022-09-25T07:44:08;101489.00;;;12.08;77.57
66945;BME280;53853;51.982;5.928;2022-09-25T07:46:40;101485.91;;;12.13;76.81
66945;BME280;53853;51.982;5.928;2022-09-25T07:49:12;101488.00;;;12.19;76.73
66945;BME280;53853;51.982;5.928;2022-09-25T07:51:44;101490.22;;;12.24;76.36
66945;BME280;53853;51.982;5.928;2022-09-25T07:54:14;101488.81;;;12.29;76.40
66945;BME280;53853;51.982;5.928;2022-09-25T07:56:44;101488.25;;;12.36;75.73
66945;BME280;53853;51.982;5.928;2022-09-25T07:59:14;101483.44;;;12.39;74.84
66945;BME280;53853;51.982;5.928;2022-09-25T08:01:44;101492.16;;;12.41;74.95
66945;BME280;53853;51.982;5.928;2022-09-25T08:04:14;101491.72;;;12.46;74.81
66945;BME280;53853;51.982;5.928;2022-09-25T08:06:46;101490.75;;;12.47;74.37
66945;BME280;53853;51.982;5.928;2022-09-25T08:09:16;101490.16;;;12.53;74.32
66945;BME280;53853;51.982;5.928;2022-09-25T08:11:46;101494.75;;;12.61;74.15
66945;BME280;53853;51.982;5.928;2022-09-25T08:14:16;101493.19;;;12.68;74.20
66945;BME280;53853;51.982;5.928;2022-09-25T08:16:57;101492.59;;;12.74;73.58
66945;BME280;53853;51.982;5.928;2022-09-25T08:19:27;101487.63;;;12.79;73.79
66945;BME280;53853;51.982;5.928;2022-09-25T08:22:09;101492.09;;;12.89;73.10
66945;BME280;53853;51.982;5.928;2022-09-25T08:24:39;101483.47;;;12.95;72.89
66945;BME280;53853;51.982;5.928;2022-09-25T08:27:09;101493.13;;;13.05;72.63
66945;BME280;53853;51.982;5.928;2022-09-25T08:29:39;101487.03;;;13.13;72.25
66945;BME280;53853;51.982;5.928;2022-09-25T08:32:09;101483.56;;;13.21;72.43
66945;BME280;53853;51.982;5.928;2022-09-25T08:34:39;101488.03;;;13.30;72.36
66945;BME280;53853;51.982;5.928;2022-09-25T08:37:11;101489.84;;;13.39;72.43
66945;BME280;53853;51.982;5.928;2022-09-25T08:39:42;101486.53;;;13.46;72.63
66945;BME280;53853;51.982;5.928;2022-09-25T08:42:16;101484.63;;;13.56;72.46
66945;BME280;53853;51.982;5.928;2022-09-25T08:44:51;101483.03;;;13.63;71.83
66945;BME280;53853;51.982;5.928;2022-09-25T08:47:42;101477.56;;;13.73;71.73
66945;BME280;53853;51.982;5.928;2022-09-25T08:50:25;101477.78;;;13.80;71.60
66945;BME280;53853;51.982;5.928;2022-09-25T08:53:03;101483.53;;;13.85;71.92
66945;BME280;53853;51.982;5.928;2022-09-25T08:55:38;101482.75;;;13.92;72.06
66945;BME280;53853;51.982;5.928;2022-09-25T08:58:23;101488.34;;;13.99;71.07
66945;BME280;53853;51.982;5.928;2022-09-25T09:00:56;101480.00;;;14.02;71.43
66945;BME280;53853;51.982;5.928;2022-09-25T09:03:27;101481.03;;;14.09;70.61
66945;BME280;53853;51.982;5.928;2022-09-25T09:06:01;101488.44;;;14.16;70.26
66945;BME280;53853;51.982;5.928;2022-09-25T09:08:36;101479.94;;;14.20;70.64
66945;BME280;53853;51.982;5.928;2022-09-25T09:11:10;101485.81;;;14.24;69.98
66945;BME280;53853;51.982;5.928;2022-09-25T09:13:44;101491.38;;;14.30;70.50
66945;BME280;53853;51.982;5.928;2022-09-25T09:16:22;101486.41;;;14.36;71.16
66945;BME280;53853;51.982;5.928;2022-09-25T09:19:00;101478.56;;;14.42;71.38
66945;BME280;53853;51.982;5.928;2022-09-25T09:21:34;101484.94;;;14.49;70.99
66945;BME280;53853;51.982;5.928;2022-09-25T09:24:10;101486.00;;;14.57;69.17
66945;BME280;53853;51.982;5.928;2022-09-25T09:27:04;101488.69;;;14.57;69.15
66945;BME280;53853;51.982;5.928;2022-09-25T09:29:48;101482.88;;;14.61;68.99
66945;BME280;53853;51.982;5.928;2022-09-25T09:32:42;101483.88;;;14.68;69.25
66945;BME280;53853;51.982;5.928;2022-09-25T09:35:28;101485.78;;;14.76;67.33
66945;BME280;53853;51.982;5.928;2022-09-25T09:38:12;101475.91;;;14.77;67.18
66945;BME280;53853;51.982;5.928;2022-09-25T09:41:09;101474.72;;;14.79;66.91
66945;BME280;53853;51.982;5.928;2022-09-25T09:44:00;101471.69;;;14.74;66.24
66945;BME280;53853;51.982;5.928;2022-09-25T09:46:37;101472.03;;;14.79;66.85
66945;BME280;53853;51.982;5.928;2022-09-25T09:49:14;101462.50;;;14.85;66.62
66945;BME280;53853;51.982;5.928;2022-09-25T09:51:49;101469.22;;;14.89;65.50
66945;BME280;53853;51.982;5.928;2022-09-25T09:54:25;101461.69;;;14.93;65.55
66945;BME280;53853;51.982;5.928;2022-09-25T09:57:12;101457.19;;;15.01;66.16
66945;BME280;53853;51.982;5.928;2022-09-25T09:59:48;101463.25;;;15.12;66.66
66945;BME280;53853;51.982;5.928;2022-09-25T10:02:29;101462.28;;;15.21;65.79
66945;BME280;53853;51.982;5.928;2022-09-25T10:05:05;101460.59;;;15.28;63.54
66945;BME280;53853;51.982;5.928;2022-09-25T10:07:39;101465.47;;;15.33;64.15
66945;BME280;53853;51.982;5.928;2022-09-25T10:10:11;101453.03;;;15.32;62.18
66945;BME280;53853;51.982;5.928;2022-09-25T10:12:46;101451.22;;;15.32;64.29
66945;BME280;53853;51.982;5.928;2022-09-25T10:15:26;101451.22;;;15.40;64.18
66945;BME280;53853;51.982;5.928;2022-09-25T10:17:58;101441.47;;;15.48;62.97
66945;BME280;53853;51.982;5.928;2022-09-25T10:20:35;101450.53;;;15.55;62.69
66945;BME280;53853;51.982;5.928;2022-09-25T10:23:18;101450.38;;;15.56;59.30
66945;BME280;53853;51.982;5.928;2022-09-25T10:25:50;101437.59;;;15.58;59.75
66945;BME280;53853;51.982;5.928;2022-09-25T10:28:27;101438.78;;;15.64;60.54
66945;BME280;53853;51.982;5.928;2022-09-25T10:30:58;101446.69;;;15.74;60.21
66945;BME280;53853;51.982;5.928;2022-09-25T10:33:30;101440.84;;;15.79;59.54
66945;BME280;53853;51.982;5.928;2022-09-25T10:36:00;101437.47;;;15.85;60.10
66945;BME280;53853;51.982;5.928;2022-09-25T10:38:34;101428.72;;;15.91;59.66
66945;BME280;53853;51.982;5.928;2022-09-25T10:41:09;101434.59;;;15.94;59.91
66945;BME280;53853;51.982;5.928;2022-09-25T10:43:53;101428.03;;;15.97;60.82
66945;BME280;53853;51.982;5.928;2022-09-25T10:46:27;101436.78;;;15.99;61.52
66945;BME280;53853;51.982;5.928;2022-09-25T10:49:14;101434.56;;;16.03;62.27
66945;BME280;53853;51.982;5.928;2022-09-25T10:52:01;101427.00;;;16.06;60.43
66945;BME280;53853;51.982;5.928;2022-09-25T10:54:34;101432.88;;;16.10;58.62
66945;BME280;53853;51.982;5.928;2022-09-25T10:57:15;101431.19;;;16.17;59.81
66945;BME280;53853;51.982;5.928;2022-09-25T10:59:50;101427.63;;;16.25;57.50
66945;BME280;53853;51.982;5.928;2022-09-25T11:02:33;101426.09;;;16.30;57.40
66945;BME280;53853;51.982;5.928;2022-09-25T11:05:13;101418.00;;;16.39;58.02
66945;BME280;53853;51.982;5.928;2022-09-25T11:07:46;101419.47;;;16.50;58.18
66945;BME280;53853;51.982;5.928;2022-09-25T11:10:18;101423.13;;;16.57;55.40
66945;BME280;53853;51.982;5.928;2022-09-25T11:12:49;101425.69;;;16.50;55.13
66945;BME280;53853;51.982;5.928;2022-09-25T11:15:24;101424.34;;;16.46;56.46
66945;BME280;53853;51.982;5.928;2022-09-25T11:17:56;101416.97;;;16.48;54.94
66945;BME280;53853;51.982;5.928;2022-09-25T11:20:28;101417.28;;;16.53;56.07
66945;BME280;53853;51.982;5.928;2022-09-25T11:23:22;101414.88;;;16.58;56.68
66945;BME280;53853;51.982;5.928;2022-09-25T11:26:00;101416.88;;;16.64;54.21
66945;BME280;53853;51.982;5.928;2022-09-25T11:28:38;101412.47;;;16.72;52.53
66945;BME280;53853;51.982;5.928;2022-09-25T11:31:20;101404.22;;;16.73;51.46
66945;BME280;53853;51.982;5.928;2022-09-25T11:33:59;101415.66;;;16.75;51.56
66945;BME280;53853;51.982;5.928;2022-09-25T11:36:40;101402.81;;;16.86;52.07
66945;BME280;53853;51.982;5.928;2022-09-25T11:39:16;101394.66;;;17.02;52.98
66945;BME280;53853;51.982;5.928;2022-09-25T11:42:04;101394.34;;;17.20;53.81
66945;BME280;53853;51.982;5.928;2022-09-25T11:44:39;101398.59;;;17.37;52.57
66945;BME280;53853;51.982;5.928;2022-09-25T11:47:17;101391.84;;;17.42;49.51
66945;BME280;53853;51.982;5.928;2022-09-25T11:49:51;101389.78;;;17.44;49.86
66945;BME280;53853;51.982;5.928;2022-09-25T11:52:34;101377.88;;;17.38;50.46
66945;BME280;53853;51.982;5.928;2022-09-25T11:58:12;101383.69;;;17.50;53.83
66945;BME280;53853;51.982;5.928;2022-09-25T12:00:47;101381.81;;;17.50;52.54
66945;BME280;53853;51.982;5.928;2022-09-25T12:03:35;101383.78;;;17.33;50.95
66945;BME280;53853;51.982;5.928;2022-09-25T12:06:29;101377.63;;;17.10;52.57
66945;BME280;53853;51.982;5.928;2022-09-25T12:09:15;101368.34;;;16.89;52.86
66945;BME280;53853;51.982;5.928;2022-09-25T12:11:51;101376.75;;;16.78;53.63
66945;BME280;53853;51.982;5.928;2022-09-25T12:14:35;101367.84;;;16.77;54.41
66945;BME280;53853;51.982;5.928;2022-09-25T12:17:15;101364.50;;;16.75;51.09
66945;BME280;53853;51.982;5.928;2022-09-25T12:19:53;101369.78;;;16.69;51.12
66945;BME280;53853;51.982;5.928;2022-09-25T12:22:34;101370.47;;;16.62;52.08
66945;BME280;53853;51.982;5.928;2022-09-25T12:25:18;101366.94;;;16.62;53.39
66945;BME280;53853;51.982;5.928;2022-09-25T12:27:56;101365.44;;;16.59;53.42
66945;BME280;53853;51.982;5.928;2022-09-25T12:30:35;101369.50;;;16.55;54.95
66945;BME280;53853;51.982;5.928;2022-09-25T12:33:21;101362.47;;;16.54;56.14
66945;BME280;53853;51.982;5.928;2022-09-25T12:35:59;101358.72;;;16.55;56.56
66945;BME280;53853;51.982;5.928;2022-09-25T12:38:40;101361.06;;;16.58;56.36
66945;BME280;53853;51.982;5.928;2022-09-25T12:41:20;101350.25;;;16.66;56.55
66945;BME280;53853;51.982;5.928;2022-09-25T12:43:54;101352.06;;;16.74;55.96
66945;BME280;53853;51.982;5.928;2022-09-25T12:46:29;101343.94;;;16.82;54.65
66945;BME280;53853;51.982;5.928;2022-09-25T12:49:09;101341.06;;;16.92;54.77
66945;BME280;53853;51.982;5.928;2022-09-25T12:51:46;101344.97;;;17.05;54.74
66945;BME280;53853;51.982;5.928;2022-09-25T12:54:24;101334.63;;;17.16;53.10
66945;BME280;53853;51.982;5.928;2022-09-25T12:56:57;101331.50;;;17.28;54.27
66945;BME280;53853;51.982;5.928;2022-09-25T12:59:32;101331.88;;;17.39;53.15
66945;BME280;53853;51.982;5.928;2022-09-25T13:02:09;101330.25;;;17.53;53.71
66945;BME280;53853;51.982;5.928;2022-09-25T13:04:53;101319.78;;;17.73;53.46
66945;BME280;53853;51.982;5.928;2022-09-25T13:07:35;101316.25;;;17.88;53.18
66945;BME280;53853;51.982;5.928;2022-09-25T13:10:17;101311.41;;;17.98;53.59
66945;BME280;53853;51.982;5.928;2022-09-25T13:12:50;101320.72;;;18.10;53.37
66945;BME280;53853;51.982;5.928;2022-09-25T13:15:22;101311.50;;;18.20;53.93
66945;BME280;53853;51.982;5.928;2022-09-25T13:17:54;101316.13;;;18.26;50.94
66945;BME280;53853;51.982;5.928;2022-09-25T13:20:40;101306.53;;;18.38;50.43
66945;BME280;53853;51.982;5.928;2022-09-25T13:23:29;101302.47;;;18.49;51.70
66945;BME280;53853;51.982;5.928;2022-09-25T13:26:09;101298.69;;;18.65;52.35
66945;BME280;53853;51.982;5.928;2022-09-25T13:28:46;101301.09;;;18.75;51.04
66945;BME280;53853;51.982;5.928;2022-09-25T13:31:22;101298.25;;;18.83;50.61
66945;BME280;53853;51.982;5.928;2022-09-25T13:33:55;101295.41;;;18.85;49.71
66945;BME280;53853;51.982;5.928;2022-09-25T13:36:33;101295.47;;;18.91;46.60